Latest Coastal Weather Observations for Merimbula

IDN60701

Issued at 11:21 pm EST Thursday 22 August 2019 (issued every 10 minutes, with the page automatically refreshed every 10 minutes)

About coastal observations | Map of coastal stations | Coastal observations for NSW | Marine services | Other Formats
Station Details ID: 069147 Name: MERIMBULA AIRPORT AWS Lat: -36.91 Lon: 149.90 Height: 1.5 m
Data from the previous 72 hours. | See also: Recent months at Merimbula
Date/Time
EST
Wind Sea
Height
m
Swell Vis
km
Cloud Weather Temp
°C
Press
hPa
Rain since
9am
mm
Dir  Spd
kts
Gust
kts
Height
m
Period
s
Dir
22/11:00pm W 4 6 - - - - 10 Partly cloudy - 8.3 1024.3 0.0
22/10:30pm SW 7 11 - - - - 10 - - 8.8 1024.3 0.0
22/10:00pm SW 7 13 - - - - 10 Partly cloudy - 8.9 1024.2 0.0
22/09:30pm WSW 4 6 - - - - 10 Partly cloudy - 8.5 1023.9 0.0
22/09:00pm W 5 10 - - - - 10 Mostly clear - 8.6 1023.8 0.0
22/08:30pm WSW 5 7 - - - - 10 Partly cloudy - 8.4 1023.6 0.0
22/08:00pm WSW 6 12 - - - - 10 Partly cloudy - 9.5 1023.4 0.0
22/07:30pm SW 8 15 - - - - 10 - - 9.5 1023.0 0.0
22/07:00pm SW 11 18 - - - - 10 - - 9.8 1022.5 0.0
22/06:30pm SW 13 21 - - - - 10 Partly cloudy - 10.4 1022.2 0.0
22/06:00pm SW 11 18 - - - - 10 - - 10.6 1021.3 0.0
22/05:30pm SSW 13 21 - - - - 10 Partly cloudy - 10.9 1020.8 0.0
22/05:00pm SSW 15 27 - - - - 10 Partly cloudy - 11.4 1020.1 0.0
22/04:30pm SW 16 29 - - - - 10 Partly cloudy - 12.4 1019.3 0.0
22/04:00pm SW 15 29 - - - - 10 - - 12.6 1018.6 0.0
22/03:30pm SSW 18 29 - - - - 10 Partly cloudy - 13.0 1018.1 0.0
22/03:09pm SW 15 28 - - - - 10 Partly cloudy - 13.8 1017.6 0.0
22/03:00pm WSW 14 25 - - - - 10 Cloudy - 14.0 1017.4 0.0
22/02:30pm SW 17 32 - - - - 10 Partly cloudy - 13.1 1016.9 0.0
22/02:00pm SSW 18 35 - - - - 10 Partly cloudy - 14.1 1016.5 0.0
22/01:31pm SSW 18 30 - - - - 10 Partly cloudy - 13.7 1016.3 0.0
22/01:30pm SSW 18 27 - - - - 10 Partly cloudy - 14.0 1016.2 0.0
22/01:00pm SW 18 28 - - - - 10 Partly cloudy - 12.0 1016.1 0.0
22/12:30pm WSW 19 31 - - - - 10 Partly cloudy - 12.9 1016.0 0.0
22/12:22pm SW 15 29 - - - - 10 Partly cloudy - 13.5 1015.7 0.0
22/12:00pm SW 13 28 - - - - 10 Partly cloudy - 12.6 1016.1 0.0
22/11:31am SW 15 25 - - - - 10 Partly cloudy - 11.3 1016.1 0.0
22/11:30am SW 16 25 - - - - 10 Partly cloudy - 11.2 1016.1 0.0
22/11:00am SW 16 27 - - - - 10 Partly cloudy - 12.9 1015.3 0.0
22/10:31am SW 16 26 - - - - 10 Partly cloudy - 12.6 1015.1 0.0
22/10:30am SW 17 26 - - - - 10 Partly cloudy - 12.3 1015.1 0.0
22/10:00am SW 17 29 - - - - 10 Partly cloudy - 11.7 1014.8 0.0
22/09:30am SW 18 32 - - - - 10 Partly cloudy - 11.4 1014.5 0.0
22/09:04am SW 15 27 - - - - 10 Partly cloudy - 11.0 1014.1 0.0
22/09:00am SW 14 26 - - - - 10 Mostly cloudy Recent precip. 10.8 1014.1 0.2
22/08:30am SW 15 34 - - - - 10 Partly cloudy - 10.4 1013.4 0.2
22/08:00am SW 16 28 - - - - 10 Partly cloudy - 9.6 1013.1 0.0
22/07:30am SSW 17 40 - - - - 10 Partly cloudy - 8.4 1012.0 0.0
22/07:00am SW 16 34 - - - - 10 Partly cloudy - 11.7 1010.4 0.0
22/06:30am WSW 18 35 - - - - 10 Partly cloudy - 11.3 1010.2 0.0
22/06:00am SW 19 34 - - - - 10 Partly cloudy - 11.7 1009.6 0.0
22/05:30am WSW 20 35 - - - - 10 Partly cloudy - 13.6 1008.1 0.0
22/05:15am WSW 22 43 - - - - 10 Partly cloudy - 14.0 1007.8 0.0
22/05:13am WSW 21 43 - - - - 10 Partly cloudy - 14.0 1007.6 0.0
22/05:11am WSW 22 43 - - - - 10 Partly cloudy - 14.3 1007.8 0.0
22/05:00am SW 18 32 - - - - 10 Partly cloudy - 14.6 1007.2 0.0
22/04:30am WSW 17 29 - - - - 10 Partly cloudy - 15.2 1006.2 0.0
22/04:00am WSW 18 33 - - - - 10 - - 15.3 1005.6 0.0
22/03:30am WSW 16 29 - - - - 10 - - 14.6 1005.5 0.0
22/03:00am WSW 18 32 - - - - 10 Mostly cloudy - 14.6 1005.9 0.0
22/02:37am WSW 15 27 - - - - 10 Partly cloudy - 15.2 1006.2 0.0
22/02:30am WSW 11 20 - - - - 10 Partly cloudy - 15.3 1006.3 0.0
22/02:00am WSW 16 28 - - - - 10 - - 16.0 1005.7 0.0
22/01:36am WSW 15 28 - - - - 10 - - 15.8 1005.6 0.0
22/01:30am W 13 24 - - - - 10 - - 15.6 1005.6 0.0
22/01:00am W 11 21 - - - - 10 Partly cloudy - 15.3 1006.1 0.0
22/12:30am W 12 19 - - - - 10 Partly cloudy - 15.5 1006.4 0.0
22/12:00am WSW 16 27 - - - - 10 Partly cloudy - 16.2 1006.8 0.0
 
Date/Time
EST
Wind Sea
Height
m
Swell Vis
km
Cloud Weather Temp
°C
Press
hPa
Rain since
9am
mm
Dir  Spd
kts
Gust
kts
Height
m
Period
s
Dir
21/11:54pm W 17 28 - - - - 10 Partly cloudy - 16.3 1006.9 0.0
21/11:50pm W 15 28 - - - - 10 Partly cloudy - 16.4 1007.0 0.0
21/11:30pm W 9 17 - - - - 10 Partly cloudy - 15.8 1007.2 0.0
21/11:00pm WNW 6 13 - - - - 10 Partly cloudy - 13.8 1007.8 0.0
21/10:30pm CALM 0 0 - - - - 10 Partly cloudy - 10.0 1008.7 0.0
21/10:00pm NNW 4 5 - - - - 10 Cloudy - 10.1 1009.0 0.0
21/09:30pm CALM 0 0 - - - - 10 Cloudy - 9.4 1009.7 0.0
21/09:00pm CALM 0 0 - - - - 10 Cloudy - 9.2 1009.8 0.0
21/08:30pm CALM 0 0 - - - - 10 Cloudy - 9.0 1010.3 0.0
21/08:00pm CALM 0 0 - - - - 10 Partly cloudy - 9.6 1010.6 0.0
21/07:30pm S 4 6 - - - - 10 Partly cloudy - 11.2 1010.5 0.0
21/07:00pm S 5 6 - - - - 10 - - 13.4 1010.5 0.0
21/06:30pm SW 6 10 - - - - 10 - - 15.0 1010.4 0.0
21/06:00pm SW 5 10 - - - - 10 - - 15.7 1010.1 0.0
21/05:30pm WSW 11 17 - - - - 10 - - 17.3 1010.0 0.0
21/05:00pm WSW 11 20 - - - - 10 - - 18.1 1009.3 0.0
21/04:35pm WSW 15 25 - - - - 10 - - 18.9 1009.2 0.0
21/04:30pm WSW 14 25 - - - - 10 - - 18.9 1009.2 0.0
21/04:00pm WSW 16 23 - - - - 10 - - 19.5 1009.3 0.0
21/03:30pm WSW 17 33 - - - - 10 - - 19.5 1009.0 0.0
21/03:00pm WSW 17 31 - - - - 10 - - 20.1 1009.3 0.0
21/02:30pm WSW 23 40 - - - - 10 - - 20.2 1009.5 0.0
21/02:22pm WSW 19 40 - - - - 10 - - 20.4 1009.3 0.0
21/02:00pm WSW 17 29 - - - - 10 Partly cloudy - 20.5 1009.2 0.0
21/01:42pm W 21 41 - - - - 10 Partly cloudy - 20.2 1009.1 0.0
21/01:30pm WSW 16 29 - - - - 10 - - 20.4 1009.3 0.0
21/01:00pm WSW 18 32 - - - - 10 - - 19.9 1009.1 0.0
21/12:30pm WSW 22 36 - - - - 10 - - 19.8 1009.8 0.0
21/12:00pm WSW 18 31 - - - - 10 Mostly clear - 19.6 1010.2 0.0
21/11:36am WSW 18 41 - - - - 10 - - 18.9 1010.5 0.0
21/11:30am WSW 19 31 - - - - 10 - - 18.9 1010.5 0.0
21/11:00am WSW 15 31 - - - - 10 - - 18.8 1010.9 0.0
21/10:39am WSW 15 27 - - - - 10 - - 17.6 1011.1 0.0
21/10:30am WSW 13 24 - - - - 10 - - 17.4 1011.2 0.0
21/10:00am WSW 11 19 - - - - 10 Partly cloudy - 14.6 1012.1 0.0
21/09:30am WSW 7 13 - - - - 10 Partly cloudy - 15.7 1011.7 0.0
21/09:00am WSW 11 16 - - - - 10 Cloudy - 16.0 1011.4 0.0
21/08:30am W 13 21 - - - - 10 Partly cloudy - 16.8 1010.9 0.0
21/08:01am W 15 25 - - - - 10 Partly cloudy - 16.2 1010.8 0.0
21/08:00am WSW 14 25 - - - - 10 Partly cloudy - 16.2 1010.8 0.0
21/07:58am WSW 15 25 - - - - 10 Partly cloudy - 16.1 1010.9 0.0
21/07:30am W 10 15 - - - - 10 Partly cloudy - 15.4 1010.5 0.0
21/07:00am W 9 14 - - - - 10 - - 14.6 1010.0 0.0
21/06:30am W 7 13 - - - - 10 - - 14.2 1009.8 0.0
21/06:00am W 9 18 - - - - 10 - - 14.5 1009.3 0.0
21/05:30am W 8 13 - - - - 10 - - 14.4 1009.5 0.0
21/05:00am WNW 8 14 - - - - 10 - - 14.3 1009.6 0.0
21/04:30am W 9 14 - - - - 10 - - 14.6 1009.8 0.0
21/04:00am WNW 9 19 - - - - 10 - - 14.5 1009.8 0.0
21/03:30am WNW 7 11 - - - - 10 - - 13.8 1010.0 0.0
21/03:00am NW 7 15 - - - - 10 - - 14.2 1010.2 0.0
21/02:30am N 5 9 - - - - 10 - - 13.2 1010.7 0.0
21/02:00am NNE 7 12 - - - - 10 - - 13.8 1011.4 0.0
21/01:30am NNE 6 8 - - - - 10 - - 13.4 1011.6 0.0
21/01:00am N 6 10 - - - - 10 - - 13.2 1012.0 0.0
21/12:30am NNE 6 11 - - - - 10 Partly cloudy - 13.3 1012.7 0.0
21/12:00am N 5 9 - - - - 10 Mostly clear - 12.9 1013.1 0.0
 
Date/Time
EST
Wind Sea
Height
m
Swell Vis
km
Cloud Weather Temp
°C
Press
hPa
Rain since
9am
mm
Dir  Spd
kts
Gust
kts
Height
m
Period
s
Dir
20/11:30pm N 5 8 - - - - 10 - - 12.6 1013.6 0.0
20/11:00pm N 4 7 - - - - 10 Partly cloudy - 11.9 1013.8 0.0
20/10:30pm N 5 7 - - - - 10 Partly cloudy - 12.7 1014.3 0.0
20/10:00pm NW 7 14 - - - - 10 - - 13.1 1014.6 0.0
20/09:30pm WNW 11 16 - - - - 10 Partly cloudy - 13.4 1015.3 0.0
20/09:00pm WNW 13 19 - - - - 10 - - 13.4 1016.2 0.0
20/08:30pm WNW 15 21 - - - - 10 - - 13.6 1016.1 0.0
20/08:05pm W 15 25 - - - - 10 - - 14.0 1016.2 0.0
20/08:00pm WNW 15 23 - - - - 10 - - 14.0 1016.1 0.0
20/07:30pm W 14 21 - - - - 10 - - 14.5 1015.8 0.0
20/07:00pm WNW 13 20 - - - - 10 - - 15.1 1015.3 0.0
20/06:30pm W 13 21 - - - - 10 - - 15.6 1015.0 0.0
20/06:00pm WNW 12 18 - - - - 10 - - 15.8 1015.0 0.0
20/05:30pm WNW 12 21 - - - - 10 - - 16.8 1014.8 0.0
20/05:00pm WNW 10 18 - - - - 10 - - 18.0 1014.8 0.0
20/04:30pm W 13 18 - - - - 10 - - 19.3 1014.7 0.0
20/04:00pm WNW 9 16 - - - - 10 - - 20.5 1014.6 0.0
20/03:30pm SW 11 18 - - - - 10 - - 21.0 1014.5 0.0
20/03:00pm W 12 23 - - - - 10 - - 20.7 1014.5 0.0
20/02:30pm W 13 22 - - - - 10 - - 20.9 1014.7 0.0
20/02:00pm WNW 13 19 - - - - 10 - - 21.1 1015.0 0.0
20/01:30pm W 11 21 - - - - 10 - - 20.7 1015.3 0.0
20/01:00pm WSW 12 19 - - - - 10 - - 20.4 1015.9 0.0
20/12:30pm W 15 23 - - - - 10 - - 19.7 1016.3 0.0
20/12:00pm W 13 22 - - - - 10 - - 18.8 1016.7 0.0
20/11:30am WNW 10 18 - - - - 10 - - 18.9 1017.4 0.0
20/11:00am WNW 9 16 - - - - 10 - - 18.2 1017.9 0.0
20/10:30am WNW 12 17 - - - - 10 - - 16.7 1018.5 0.0
20/10:00am WNW 11 18 - - - - 10 - - 16.1 1018.7 0.0
20/09:30am WNW 8 16 - - - - 10 - - 15.2 1019.1 0.0
20/09:00am NW 5 10 - - - - 10 - - 14.0 1019.5 0.0
20/08:30am NW 5 7 - - - - 10 - - 12.7 1019.8 0.0
20/08:00am WNW 1 4 - - - - 10 - - 8.7 1020.0 0.0
20/07:30am NW 3 6 - - - - 10 - - 6.1 1019.9 0.0
20/07:00am NNW 5 8 - - - - 10 - - 5.7 1019.6 0.0
20/06:30am NNW 6 8 - - - - 10 - - 6.1 1019.5 0.0
20/06:00am NW 5 9 - - - - 10 - - 6.5 1019.2 0.0
20/05:30am N 4 6 - - - - 10 - - 6.0 1019.2 0.0
20/05:00am N 4 6 - - - - 10 - - 8.3 1019.0 0.0
20/04:30am NNW 4 7 - - - - 10 - - 7.8 1018.8 0.0
20/04:00am NNW 3 6 - - - - 10 - - 9.2 1018.5 0.0
20/03:30am W 9 15 - - - - 10 - - 10.1 1018.5 0.0
20/03:00am W 9 13 - - - - 10 - - 9.9 1018.5 0.0
20/02:30am W 9 15 - - - - 10 - - 10.1 1018.7 0.0
20/02:00am W 9 13 - - - - 10 - - 10.1 1018.9 0.0
20/01:30am W 9 13 - - - - 10 - - 10.2 1019.2 0.0
20/01:00am W 9 14 - - - - 10 - - 10.4 1019.0 0.0
20/12:30am W 10 16 - - - - 10 - - 10.2 1019.0 0.0
20/12:00am W 9 12 - - - - 10 - - 10.0 1019.1 0.0
 
Date/Time
EST
Wind Sea
Height
m
Swell Vis
km
Cloud Weather Temp
°C
Press
hPa
Rain since
9am
mm
Dir  Spd
kts
Gust
kts
Height
m
Period
s
Dir
19/11:30pm W 11 15 - - - - 10 - - 10.4 1019.1 0.0

Other formats

Comma delimited format used in spreadsheet applications
http://www.bom.gov.au/fwo/IDN60701/IDN60701.95929.axf

JavaScript Object Notation format (JSON) in row-major order
http://www.bom.gov.au/fwo/IDN60701/IDN60701.95929.json

Data quality

Most of these data are generated automatically and are frequently updated. Quality checks on data are not normally performed. It is possible for incorrect values to appear. Refer to information at About Latest Weather Observations and please check the disclaimer before using these data.